sensor_id;sensor_type;location;lat;lon;timestamp;pressure;altitude;pressure_sealevel;temperature;humidity
48424;BME280;34232;42.502;26.014;2023-05-08T00:00:43;100401.22;;;12.78;55.69
48424;BME280;34232;42.502;26.014;2023-05-08T00:03:09;100400.97;;;12.81;55.80
48424;BME280;34232;42.502;26.014;2023-05-08T00:05:34;100395.09;;;12.78;55.93
48424;BME280;34232;42.502;26.014;2023-05-08T00:07:59;100393.28;;;12.78;56.37
48424;BME280;34232;42.502;26.014;2023-05-08T00:10:28;100394.84;;;12.81;56.22
48424;BME280;34232;42.502;26.014;2023-05-08T00:12:54;100385.38;;;12.78;56.67
48424;BME280;34232;42.502;26.014;2023-05-08T00:15:19;100384.53;;;12.78;57.40
48424;BME280;34232;42.502;26.014;2023-05-08T00:17:45;100386.22;;;12.79;57.44
48424;BME280;34232;42.502;26.014;2023-05-08T00:20:10;100390.91;;;12.75;57.27
48424;BME280;34232;42.502;26.014;2023-05-08T00:22:36;100385.63;;;12.75;57.75
48424;BME280;34232;42.502;26.014;2023-05-08T00:25:02;100384.53;;;12.78;58.13
48424;BME280;34232;42.502;26.014;2023-05-08T00:27:29;100392.19;;;12.81;58.02
48424;BME280;34232;42.502;26.014;2023-05-08T00:29:54;100392.06;;;12.82;57.91
48424;BME280;34232;42.502;26.014;2023-05-08T00:32:20;100385.13;;;12.81;57.57
48424;BME280;34232;42.502;26.014;2023-05-08T00:34:45;100385.66;;;12.85;58.23
48424;BME280;34232;42.502;26.014;2023-05-08T00:37:10;100379.53;;;12.84;57.78
48424;BME280;34232;42.502;26.014;2023-05-08T00:39:35;100379.00;;;12.81;57.76
48424;BME280;34232;42.502;26.014;2023-05-08T00:42:01;100373.97;;;12.78;58.03
48424;BME280;34232;42.502;26.014;2023-05-08T00:44:26;100376.75;;;12.76;58.61
48424;BME280;34232;42.502;26.014;2023-05-08T00:46:51;100373.38;;;12.74;58.66
48424;BME280;34232;42.502;26.014;2023-05-08T00:49:17;100373.38;;;12.74;58.82
48424;BME280;34232;42.502;26.014;2023-05-08T00:51:42;100372.81;;;12.71;58.92
48424;BME280;34232;42.502;26.014;2023-05-08T00:54:09;100373.06;;;12.68;59.08
48424;BME280;34232;42.502;26.014;2023-05-08T00:56:34;100380.31;;;12.66;59.17
48424;BME280;34232;42.502;26.014;2023-05-08T00:59:01;100371.69;;;12.64;59.27
48424;BME280;34232;42.502;26.014;2023-05-08T01:01:27;100377.69;;;12.66;59.11
48424;BME280;34232;42.502;26.014;2023-05-08T01:03:52;100374.75;;;12.69;59.21
48424;BME280;34232;42.502;26.014;2023-05-08T01:06:18;100377.13;;;12.72;57.79
48424;BME280;34232;42.502;26.014;2023-05-08T01:08:43;100368.69;;;12.78;56.97
48424;BME280;34232;42.502;26.014;2023-05-08T01:13:41;100379.84;;;12.81;54.76
48424;BME280;34232;42.502;26.014;2023-05-08T01:16:13;100373.97;;;12.78;54.33
48424;BME280;34232;42.502;26.014;2023-05-08T01:18:44;100373.78;;;12.70;54.53
48424;BME280;34232;42.502;26.014;2023-05-08T01:33:49;100378.00;;;12.10;57.46
48424;BME280;34232;42.502;26.014;2023-05-08T01:38:43;100375.09;;;11.92;58.22
48424;BME280;34232;42.502;26.014;2023-05-08T01:41:13;100386.16;;;11.86;58.20
48424;BME280;34232;42.502;26.014;2023-05-08T01:46:12;100392.66;;;11.82;58.97
48424;BME280;34232;42.502;26.014;2023-05-08T01:48:41;100382.00;;;11.83;58.72
48424;BME280;34232;42.502;26.014;2023-05-08T01:51:11;100395.88;;;11.85;58.54
48424;BME280;34232;42.502;26.014;2023-05-08T01:53:40;100381.16;;;11.83;58.75
48424;BME280;34232;42.502;26.014;2023-05-08T01:56:11;100385.72;;;11.81;59.21
48424;BME280;34232;42.502;26.014;2023-05-08T01:58:37;100379.09;;;11.75;59.30
48424;BME280;34232;42.502;26.014;2023-05-08T02:01:04;100381.25;;;11.70;59.12
48424;BME280;34232;42.502;26.014;2023-05-08T02:03:30;100379.88;;;11.66;58.07
48424;BME280;34232;42.502;26.014;2023-05-08T02:05:57;100372.44;;;11.60;59.06
48424;BME280;34232;42.502;26.014;2023-05-08T02:08:23;100377.84;;;11.58;60.00
48424;BME280;34232;42.502;26.014;2023-05-08T02:10:50;100378.69;;;11.59;60.19
48424;BME280;34232;42.502;26.014;2023-05-08T02:13:17;100377.00;;;11.58;59.86
48424;BME280;34232;42.502;26.014;2023-05-08T02:15:44;100374.59;;;11.55;59.78
48424;BME280;34232;42.502;26.014;2023-05-08T02:18:10;100374.88;;;11.52;59.75
48424;BME280;34232;42.502;26.014;2023-05-08T02:20:36;100374.53;;;11.45;60.64
48424;BME280;34232;42.502;26.014;2023-05-08T02:23:03;100376.31;;;11.45;60.66
48424;BME280;34232;42.502;26.014;2023-05-08T02:25:29;100374.66;;;11.44;61.41
48424;BME280;34232;42.502;26.014;2023-05-08T02:27:54;100378.25;;;11.43;61.15
48424;BME280;34232;42.502;26.014;2023-05-08T02:30:20;100374.88;;;11.41;61.33
48424;BME280;34232;42.502;26.014;2023-05-08T02:32:48;100375.84;;;11.40;61.55
48424;BME280;34232;42.502;26.014;2023-05-08T02:35:15;100375.72;;;11.41;61.90
48424;BME280;34232;42.502;26.014;2023-05-08T02:37:44;100376.56;;;11.42;61.51
48424;BME280;34232;42.502;26.014;2023-05-08T02:40:10;100370.44;;;11.41;61.94
48424;BME280;34232;42.502;26.014;2023-05-08T02:42:37;100368.19;;;11.37;62.01
48424;BME280;34232;42.502;26.014;2023-05-08T02:45:02;100367.22;;;11.38;62.64
48424;BME280;34232;42.502;26.014;2023-05-08T02:50:03;100362.34;;;11.33;62.53
48424;BME280;34232;42.502;26.014;2023-05-08T02:52:32;100368.69;;;11.31;63.11
48424;BME280;34232;42.502;26.014;2023-05-08T02:55:00;100368.19;;;11.37;62.97
48424;BME280;34232;42.502;26.014;2023-05-08T02:57:43;100377.19;;;11.34;63.09
48424;BME280;34232;42.502;26.014;2023-05-08T03:00:11;100371.53;;;11.39;63.29
48424;BME280;34232;42.502;26.014;2023-05-08T03:02:39;100376.56;;;11.42;62.34
48424;BME280;34232;42.502;26.014;2023-05-08T03:05:10;100371.06;;;11.45;62.27
48424;BME280;34232;42.502;26.014;2023-05-08T03:07:38;100369.38;;;11.44;62.08
48424;BME280;34232;42.502;26.014;2023-05-08T03:10:06;100374.44;;;11.36;62.08
48424;BME280;34232;42.502;26.014;2023-05-08T03:12:35;100368.81;;;11.29;61.42
48424;BME280;34232;42.502;26.014;2023-05-08T03:17:30;100371.94;;;11.23;60.93
48424;BME280;34232;42.502;26.014;2023-05-08T03:19:57;100367.16;;;11.17;61.14
48424;BME280;34232;42.502;26.014;2023-05-08T03:22:24;100377.09;;;11.13;61.25
48424;BME280;34232;42.502;26.014;2023-05-08T03:24:51;100369.31;;;11.12;60.38
48424;BME280;34232;42.502;26.014;2023-05-08T03:27:17;100370.16;;;11.12;60.71
48424;BME280;34232;42.502;26.014;2023-05-08T03:29:44;100372.06;;;11.10;60.12
48424;BME280;34232;42.502;26.014;2023-05-08T03:32:10;100373.16;;;11.08;60.09
48424;BME280;34232;42.502;26.014;2023-05-08T03:34:35;100372.56;;;11.04;59.81
48424;BME280;34232;42.502;26.014;2023-05-08T03:37:02;100384.06;;;11.03;59.75
48424;BME280;34232;42.502;26.014;2023-05-08T03:39:27;100380.00;;;10.99;59.44
48424;BME280;34232;42.502;26.014;2023-05-08T03:41:53;100377.13;;;11.02;59.38
48424;BME280;34232;42.502;26.014;2023-05-08T03:44:19;100388.25;;;11.06;60.49
48424;BME280;34232;42.502;26.014;2023-05-08T03:46:46;100389.78;;;11.08;60.86
48424;BME280;34232;42.502;26.014;2023-05-08T03:49:14;100395.19;;;11.18;60.60
48424;BME280;34232;42.502;26.014;2023-05-08T03:51:41;100399.72;;;11.27;60.33
48424;BME280;34232;42.502;26.014;2023-05-08T03:54:07;100407.28;;;11.32;60.41
48424;BME280;34232;42.502;26.014;2023-05-08T03:56:32;100405.91;;;11.37;60.50
48424;BME280;34232;42.502;26.014;2023-05-08T03:59:17;100395.97;;;11.41;60.69
48424;BME280;34232;42.502;26.014;2023-05-08T04:01:54;100398.84;;;11.49;60.86
48424;BME280;34232;42.502;26.014;2023-05-08T04:07:14;100397.50;;;11.54;61.08
48424;BME280;34232;42.502;26.014;2023-05-08T04:09:44;100404.69;;;11.64;60.84
48424;BME280;34232;42.502;26.014;2023-05-08T04:15:00;100403.78;;;11.85;60.45
48424;BME280;34232;42.502;26.014;2023-05-08T04:17:33;100401.00;;;11.98;61.00
48424;BME280;34232;42.502;26.014;2023-05-08T04:20:02;100399.38;;;12.07;61.12
48424;BME280;34232;42.502;26.014;2023-05-08T04:22:28;100406.72;;;12.24;59.55
48424;BME280;34232;42.502;26.014;2023-05-08T04:24:54;100400.75;;;12.43;57.98
48424;BME280;34232;42.502;26.014;2023-05-08T04:27:22;100387.53;;;12.64;57.36
48424;BME280;34232;42.502;26.014;2023-05-08T04:29:47;100390.41;;;12.81;56.47
48424;BME280;34232;42.502;26.014;2023-05-08T04:32:13;100385.16;;;13.01;57.23
48424;BME280;34232;42.502;26.014;2023-05-08T04:34:38;100388.88;;;13.19;58.07
48424;BME280;34232;42.502;26.014;2023-05-08T04:37:05;100389.78;;;13.39;57.68
48424;BME280;34232;42.502;26.014;2023-05-08T04:39:30;100391.47;;;13.59;55.60
48424;BME280;34232;42.502;26.014;2023-05-08T04:41:55;100390.09;;;13.74;55.39
48424;BME280;34232;42.502;26.014;2023-05-08T04:44:26;100388.84;;;13.97;54.89
48424;BME280;34232;42.502;26.014;2023-05-08T04:46:52;100388.69;;;14.18;55.32
48424;BME280;34232;42.502;26.014;2023-05-08T04:49:17;100393.41;;;14.34;54.36
48424;BME280;34232;42.502;26.014;2023-05-08T04:51:42;100389.50;;;14.57;53.87
48424;BME280;34232;42.502;26.014;2023-05-08T04:54:08;100384.72;;;14.70;54.09
48424;BME280;34232;42.502;26.014;2023-05-08T04:56:35;100391.22;;;14.86;50.34
48424;BME280;34232;42.502;26.014;2023-05-08T04:59:01;100385.69;;;15.07;49.96
48424;BME280;34232;42.502;26.014;2023-05-08T05:01:26;100383.38;;;15.21;49.19
48424;BME280;34232;42.502;26.014;2023-05-08T05:03:51;100386.56;;;15.43;49.20
48424;BME280;34232;42.502;26.014;2023-05-08T05:06:17;100386.56;;;15.43;49.30
48424;BME280;34232;42.502;26.014;2023-05-08T05:08:42;100386.19;;;15.65;48.33
48424;BME280;34232;42.502;26.014;2023-05-08T05:11:07;100377.25;;;15.66;46.90
48424;BME280;34232;42.502;26.014;2023-05-08T05:13:33;100380.09;;;15.55;46.89
48424;BME280;34232;42.502;26.014;2023-05-08T05:15:58;100376.31;;;15.75;46.16
48424;BME280;34232;42.502;26.014;2023-05-08T05:18:24;100376.66;;;15.72;46.06
48424;BME280;34232;42.502;26.014;2023-05-08T05:20:49;100367.91;;;15.80;47.13
48424;BME280;34232;42.502;26.014;2023-05-08T05:23:14;100367.75;;;16.17;47.17
48424;BME280;34232;42.502;26.014;2023-05-08T05:25:40;100356.34;;;16.50;46.48
48424;BME280;34232;42.502;26.014;2023-05-08T05:28:05;100363.16;;;16.70;45.22
48424;BME280;34232;42.502;26.014;2023-05-08T05:30:31;100365.22;;;16.93;45.17
48424;BME280;34232;42.502;26.014;2023-05-08T05:32:56;100374.63;;;17.13;43.43
48424;BME280;34232;42.502;26.014;2023-05-08T05:35:21;100368.00;;;17.25;43.20
48424;BME280;34232;42.502;26.014;2023-05-08T05:37:47;100367.22;;;17.41;42.82
48424;BME280;34232;42.502;26.014;2023-05-08T05:40:12;100374.09;;;17.60;41.69
48424;BME280;34232;42.502;26.014;2023-05-08T05:42:38;100364.50;;;17.75;41.36
48424;BME280;34232;42.502;26.014;2023-05-08T05:45:03;100365.50;;;17.82;42.68
48424;BME280;34232;42.502;26.014;2023-05-08T05:47:29;100372.09;;;17.62;40.65
48424;BME280;34232;42.502;26.014;2023-05-08T05:49:54;100360.69;;;17.27;40.09
48424;BME280;34232;42.502;26.014;2023-05-08T05:52:19;100361.91;;;17.41;40.89
48424;BME280;34232;42.502;26.014;2023-05-08T05:54:45;100358.28;;;17.58;40.45
48424;BME280;34232;42.502;26.014;2023-05-08T05:57:10;100349.63;;;17.56;40.05
48424;BME280;34232;42.502;26.014;2023-05-08T05:59:37;100352.75;;;17.35;39.52
48424;BME280;34232;42.502;26.014;2023-05-08T06:02:02;100351.59;;;17.46;39.56
48424;BME280;34232;42.502;26.014;2023-05-08T06:04:27;100359.41;;;17.39;38.81
48424;BME280;34232;42.502;26.014;2023-05-08T06:06:53;100351.25;;;17.41;38.51
48424;BME280;34232;42.502;26.014;2023-05-08T06:09:18;100347.69;;;17.66;38.55
48424;BME280;34232;42.502;26.014;2023-05-08T06:11:43;100344.72;;;18.02;36.73
48424;BME280;34232;42.502;26.014;2023-05-08T06:14:08;100340.53;;;18.15;35.93
48424;BME280;34232;42.502;26.014;2023-05-08T06:16:35;100331.66;;;18.39;34.25
48424;BME280;34232;42.502;26.014;2023-05-08T06:19:00;100338.47;;;18.50;35.06
48424;BME280;34232;42.502;26.014;2023-05-08T06:21:25;100343.78;;;18.66;34.23
48424;BME280;34232;42.502;26.014;2023-05-08T06:23:52;100338.09;;;18.53;36.61
48424;BME280;34232;42.502;26.014;2023-05-08T06:26:18;100336.97;;;18.64;38.52
48424;BME280;34232;42.502;26.014;2023-05-08T06:28:43;100335.13;;;18.64;37.47
48424;BME280;34232;42.502;26.014;2023-05-08T06:31:08;100336.44;;;18.52;38.08
48424;BME280;34232;42.502;26.014;2023-05-08T06:33:33;100334.97;;;18.41;37.19
48424;BME280;34232;42.502;26.014;2023-05-08T06:35:58;100340.13;;;18.51;37.37
48424;BME280;34232;42.502;26.014;2023-05-08T06:38:24;100339.81;;;18.62;37.90
48424;BME280;34232;42.502;26.014;2023-05-08T06:40:49;100335.41;;;18.77;35.71
48424;BME280;34232;42.502;26.014;2023-05-08T06:43:15;100340.94;;;18.68;35.92
48424;BME280;34232;42.502;26.014;2023-05-08T06:45:41;100331.75;;;18.78;35.76
48424;BME280;34232;42.502;26.014;2023-05-08T06:48:07;100335.97;;;19.04;36.95
48424;BME280;34232;42.502;26.014;2023-05-08T06:50:32;100332.44;;;19.11;35.29
48424;BME280;34232;42.502;26.014;2023-05-08T06:52:57;100333.78;;;19.38;36.21
48424;BME280;34232;42.502;26.014;2023-05-08T06:55:23;100330.03;;;19.55;35.63
48424;BME280;34232;42.502;26.014;2023-05-08T06:57:48;100333.19;;;19.59;34.86
48424;BME280;34232;42.502;26.014;2023-05-08T07:00:13;100328.25;;;19.71;36.30
48424;BME280;34232;42.502;26.014;2023-05-08T07:02:38;100328.47;;;19.84;34.13
48424;BME280;34232;42.502;26.014;2023-05-08T07:05:04;100331.28;;;19.68;33.77
48424;BME280;34232;42.502;26.014;2023-05-08T07:07:29;100323.56;;;19.73;33.85
48424;BME280;34232;42.502;26.014;2023-05-08T07:09:55;100313.38;;;19.91;34.37
48424;BME280;34232;42.502;26.014;2023-05-08T07:12:20;100322.28;;;20.06;33.80
48424;BME280;34232;42.502;26.014;2023-05-08T07:14:45;100322.13;;;20.22;32.84
48424;BME280;34232;42.502;26.014;2023-05-08T07:17:10;100315.25;;;20.05;32.44
48424;BME280;34232;42.502;26.014;2023-05-08T07:19:36;100316.66;;;20.16;32.76
48424;BME280;34232;42.502;26.014;2023-05-08T07:22:02;100310.72;;;20.29;31.74
48424;BME280;34232;42.502;26.014;2023-05-08T07:24:27;100321.97;;;20.01;32.51
48424;BME280;34232;42.502;26.014;2023-05-08T07:26:52;100310.72;;;20.29;31.97
48424;BME280;34232;42.502;26.014;2023-05-08T07:29:18;100308.44;;;20.55;31.34
48424;BME280;34232;42.502;26.014;2023-05-08T07:31:44;100311.38;;;20.75;30.72
48424;BME280;34232;42.502;26.014;2023-05-08T07:34:10;100317.44;;;20.98;31.26
48424;BME280;34232;42.502;26.014;2023-05-08T07:36:36;100310.41;;;20.97;29.65
48424;BME280;34232;42.502;26.014;2023-05-08T07:39:01;100308.84;;;21.03;30.01
48424;BME280;34232;42.502;26.014;2023-05-08T07:41:27;100300.63;;;21.04;30.55
48424;BME280;34232;42.502;26.014;2023-05-08T07:43:53;100306.25;;;21.24;31.18
48424;BME280;34232;42.502;26.014;2023-05-08T07:46:18;100301.41;;;21.34;31.74
48424;BME280;34232;42.502;26.014;2023-05-08T07:48:43;100296.81;;;21.49;30.23
48424;BME280;34232;42.502;26.014;2023-05-08T07:51:09;100293.00;;;21.58;29.24
48424;BME280;34232;42.502;26.014;2023-05-08T07:53:35;100298.03;;;21.25;29.55
48424;BME280;34232;42.502;26.014;2023-05-08T07:56:00;100290.63;;;21.13;29.92
48424;BME280;34232;42.502;26.014;2023-05-08T07:58:26;100296.03;;;20.98;29.23
48424;BME280;34232;42.502;26.014;2023-05-08T08:00:51;100289.47;;;21.01;30.00
48424;BME280;34232;42.502;26.014;2023-05-08T08:03:17;100290.91;;;21.18;30.03
48424;BME280;34232;42.502;26.014;2023-05-08T08:05:43;100287.00;;;21.35;30.30
48424;BME280;34232;42.502;26.014;2023-05-08T08:08:08;100283.94;;;21.59;29.32
48424;BME280;34232;42.502;26.014;2023-05-08T08:10:33;100277.97;;;21.85;29.11
48424;BME280;34232;42.502;26.014;2023-05-08T08:12:58;100280.94;;;22.18;29.31
48424;BME280;34232;42.502;26.014;2023-05-08T08:15:25;100280.88;;;22.40;28.26
48424;BME280;34232;42.502;26.014;2023-05-08T08:17:52;100279.34;;;22.65;28.15
48424;BME280;34232;42.502;26.014;2023-05-08T08:20:18;100281.00;;;22.66;28.20
48424;BME280;34232;42.502;26.014;2023-05-08T08:22:43;100278.19;;;22.40;29.75
48424;BME280;34232;42.502;26.014;2023-05-08T08:25:08;100278.47;;;22.51;27.82
48424;BME280;34232;42.502;26.014;2023-05-08T08:27:33;100278.34;;;22.31;27.82
48424;BME280;34232;42.502;26.014;2023-05-08T08:29:59;100278.59;;;22.37;28.31
48424;BME280;34232;42.502;26.014;2023-05-08T08:32:25;100277.97;;;22.41;29.50
48424;BME280;34232;42.502;26.014;2023-05-08T08:34:50;100280.38;;;22.29;29.90
48424;BME280;34232;42.502;26.014;2023-05-08T08:37:19;100280.47;;;21.87;30.06
48424;BME280;34232;42.502;26.014;2023-05-08T08:39:44;100276.50;;;21.83;30.85
48424;BME280;34232;42.502;26.014;2023-05-08T08:42:10;100279.03;;;22.12;30.94
48424;BME280;34232;42.502;26.014;2023-05-08T08:44:36;100266.91;;;22.16;30.93
48424;BME280;34232;42.502;26.014;2023-05-08T08:47:01;100267.44;;;22.05;31.12
48424;BME280;34232;42.502;26.014;2023-05-08T08:49:33;100266.41;;;22.34;30.31
48424;BME280;34232;42.502;26.014;2023-05-08T08:52:01;100254.78;;;22.27;32.63
48424;BME280;34232;42.502;26.014;2023-05-08T08:54:27;100251.44;;;22.18;32.49
48424;BME280;34232;42.502;26.014;2023-05-08T08:56:53;100251.97;;;22.42;33.27
48424;BME280;34232;42.502;26.014;2023-05-08T08:59:19;100254.47;;;22.43;33.90
48424;BME280;34232;42.502;26.014;2023-05-08T09:01:48;100250.47;;;22.67;33.78
48424;BME280;34232;42.502;26.014;2023-05-08T09:04:15;100246.47;;;22.97;32.91
48424;BME280;34232;42.502;26.014;2023-05-08T09:06:40;100247.75;;;23.15;32.19
48424;BME280;34232;42.502;26.014;2023-05-08T09:09:06;100240.75;;;23.20;32.24
48424;BME280;34232;42.502;26.014;2023-05-08T09:11:31;100248.59;;;23.28;33.30
48424;BME280;34232;42.502;26.014;2023-05-08T09:13:57;100252.72;;;23.24;32.78
48424;BME280;34232;42.502;26.014;2023-05-08T09:16:23;100253.22;;;23.54;32.33
48424;BME280;34232;42.502;26.014;2023-05-08T09:18:49;100241.25;;;23.63;32.09
48424;BME280;34232;42.502;26.014;2023-05-08T09:21:14;100228.78;;;23.49;33.34
48424;BME280;34232;42.502;26.014;2023-05-08T09:26:36;100235.34;;;23.00;33.72
48424;BME280;34232;42.502;26.014;2023-05-08T09:31:40;100233.75;;;23.46;33.51
48424;BME280;34232;42.502;26.014;2023-05-08T09:34:09;100227.94;;;23.16;33.13
48424;BME280;34232;42.502;26.014;2023-05-08T09:36:35;100225.47;;;23.34;32.07
48424;BME280;34232;42.502;26.014;2023-05-08T09:39:01;100212.66;;;23.43;34.04
48424;BME280;34232;42.502;26.014;2023-05-08T09:41:26;100214.34;;;23.57;32.66
48424;BME280;34232;42.502;26.014;2023-05-08T09:44:02;100208.53;;;23.73;33.01
48424;BME280;34232;42.502;26.014;2023-05-08T09:46:28;100203.53;;;24.03;33.35
48424;BME280;34232;42.502;26.014;2023-05-08T09:48:55;100198.97;;;24.17;32.82
48424;BME280;34232;42.502;26.014;2023-05-08T09:51:21;100193.19;;;24.13;32.89
48424;BME280;34232;42.502;26.014;2023-05-08T09:53:46;100188.16;;;24.36;33.42
48424;BME280;34232;42.502;26.014;2023-05-08T09:56:13;100186.75;;;24.72;32.89
48424;BME280;34232;42.502;26.014;2023-05-08T09:58:40;100182.53;;;24.96;31.59
48424;BME280;34232;42.502;26.014;2023-05-08T10:01:06;100188.34;;;24.86;32.42
48424;BME280;34232;42.502;26.014;2023-05-08T10:03:44;100183.34;;;24.96;33.16
48424;BME280;34232;42.502;26.014;2023-05-08T10:06:11;100175.28;;;24.96;33.88
48424;BME280;34232;42.502;26.014;2023-05-08T10:08:37;100176.31;;;24.95;32.97
48424;BME280;34232;42.502;26.014;2023-05-08T10:11:15;100165.06;;;25.05;32.99
48424;BME280;34232;42.502;26.014;2023-05-08T10:13:41;100167.34;;;25.01;34.12
48424;BME280;34232;42.502;26.014;2023-05-08T10:16:06;100169.44;;;24.55;34.04
48424;BME280;34232;42.502;26.014;2023-05-08T10:18:32;100161.38;;;24.55;34.36
48424;BME280;34232;42.502;26.014;2023-05-08T10:20:59;100164.63;;;24.25;34.01
48424;BME280;34232;42.502;26.014;2023-05-08T10:23:27;100162.97;;;24.04;36.43
48424;BME280;34232;42.502;26.014;2023-05-08T10:25:54;100156.13;;;24.28;35.38
48424;BME280;34232;42.502;26.014;2023-05-08T10:30:49;100152.59;;;24.21;34.44
48424;BME280;34232;42.502;26.014;2023-05-08T10:33:15;100147.06;;;24.61;34.84
48424;BME280;34232;42.502;26.014;2023-05-08T10:35:44;100146.25;;;24.60;33.76
48424;BME280;34232;42.502;26.014;2023-05-08T10:38:09;100143.34;;;24.62;34.95
48424;BME280;34232;42.502;26.014;2023-05-08T10:40:35;100145.84;;;24.57;32.84
48424;BME280;34232;42.502;26.014;2023-05-08T10:43:01;100136.38;;;24.48;32.61
48424;BME280;34232;42.502;26.014;2023-05-08T10:45:27;100129.75;;;24.50;34.16
48424;BME280;34232;42.502;26.014;2023-05-08T10:55:29;100118.16;;;24.43;34.93
48424;BME280;34232;42.502;26.014;2023-05-08T10:58:01;100113.91;;;24.67;34.55
48424;BME280;34232;42.502;26.014;2023-05-08T11:00:30;100109.38;;;24.92;32.98
48424;BME280;34232;42.502;26.014;2023-05-08T11:03:03;100108.94;;;25.27;32.33
48424;BME280;34232;42.502;26.014;2023-05-08T11:05:29;100108.63;;;25.60;32.03
48424;BME280;34232;42.502;26.014;2023-05-08T11:07:54;100110.44;;;25.41;32.86
48424;BME280;34232;42.502;26.014;2023-05-08T11:10:20;100099.66;;;25.41;33.50
48424;BME280;34232;42.502;26.014;2023-05-08T11:12:47;100102.53;;;25.21;33.04
48424;BME280;34232;42.502;26.014;2023-05-08T11:15:14;100104.97;;;25.29;32.22
48424;BME280;34232;42.502;26.014;2023-05-08T11:17:39;100103.31;;;25.03;32.70
48424;BME280;34232;42.502;26.014;2023-05-08T11:20:10;100102.00;;;25.13;32.60
48424;BME280;34232;42.502;26.014;2023-05-08T11:22:35;100101.53;;;25.40;32.16
48424;BME280;34232;42.502;26.014;2023-05-08T11:25:08;100099.56;;;25.04;31.72
48424;BME280;34232;42.502;26.014;2023-05-08T11:27:35;100096.88;;;25.04;34.04
48424;BME280;34232;42.502;26.014;2023-05-08T11:35:45;100085.28;;;25.29;33.00
48424;BME280;34232;42.502;26.014;2023-05-08T11:38:18;100086.63;;;25.38;33.18
48424;BME280;34232;42.502;26.014;2023-05-08T11:40:44;100085.84;;;25.13;32.56
48424;BME280;34232;42.502;26.014;2023-05-08T11:43:23;100089.06;;;24.90;33.18
48424;BME280;34232;42.502;26.014;2023-05-08T11:45:50;100082.88;;;24.58;33.83
48424;BME280;34232;42.502;26.014;2023-05-08T11:48:16;100084.84;;;24.75;33.90
48424;BME280;34232;42.502;26.014;2023-05-08T11:50:43;100067.97;;;24.87;33.40
48424;BME280;34232;42.502;26.014;2023-05-08T11:53:08;100069.66;;;25.13;34.23
48424;BME280;34232;42.502;26.014;2023-05-08T11:55:33;100068.53;;;25.45;32.37
48424;BME280;34232;42.502;26.014;2023-05-08T11:57:58;100063.91;;;25.70;31.93
48424;BME280;34232;42.502;26.014;2023-05-08T12:00:24;100059.34;;;25.89;32.70
48424;BME280;34232;42.502;26.014;2023-05-08T12:02:49;100046.25;;;25.74;32.36
48424;BME280;34232;42.502;26.014;2023-05-08T12:05:14;100047.41;;;25.42;32.46
48424;BME280;34232;42.502;26.014;2023-05-08T12:07:50;100047.19;;;25.43;33.08
48424;BME280;34232;42.502;26.014;2023-05-08T12:10:15;100043.03;;;25.23;33.10
48424;BME280;34232;42.502;26.014;2023-05-08T12:12:41;100037.06;;;25.39;32.64
48424;BME280;34232;42.502;26.014;2023-05-08T12:15:10;100027.28;;;25.20;33.03
48424;BME280;34232;42.502;26.014;2023-05-08T12:17:36;100027.44;;;25.06;32.81
48424;BME280;34232;42.502;26.014;2023-05-08T12:20:15;100021.91;;;24.70;33.67
48424;BME280;34232;42.502;26.014;2023-05-08T12:22:41;100027.38;;;24.57;33.43
48424;BME280;34232;42.502;26.014;2023-05-08T12:25:07;100027.19;;;24.83;35.05
48424;BME280;34232;42.502;26.014;2023-05-08T12:27:34;100024.75;;;24.75;33.61
48424;BME280;34232;42.502;26.014;2023-05-08T12:29:59;100025.03;;;24.98;33.59
48424;BME280;34232;42.502;26.014;2023-05-08T12:32:25;100031.81;;;25.26;33.59
48424;BME280;34232;42.502;26.014;2023-05-08T12:34:50;100028.59;;;25.54;34.89
48424;BME280;34232;42.502;26.014;2023-05-08T12:37:25;100032.09;;;25.79;33.17
48424;BME280;34232;42.502;26.014;2023-05-08T12:39:51;100024.22;;;25.77;33.34
48424;BME280;34232;42.502;26.014;2023-05-08T12:42:16;100020.59;;;26.02;32.69
48424;BME280;34232;42.502;26.014;2023-05-08T12:44:41;100013.84;;;26.11;32.39
48424;BME280;34232;42.502;26.014;2023-05-08T12:47:13;100004.50;;;26.25;33.76
48424;BME280;34232;42.502;26.014;2023-05-08T12:49:39;100004.31;;;26.38;31.87
48424;BME280;34232;42.502;26.014;2023-05-08T12:54:34;100007.28;;;26.19;31.99
48424;BME280;34232;42.502;26.014;2023-05-08T12:56:59;100009.94;;;26.07;32.06
48424;BME280;34232;42.502;26.014;2023-05-08T12:59:28;100005.56;;;25.76;33.13
48424;BME280;34232;42.502;26.014;2023-05-08T13:01:55;100005.13;;;25.79;33.22
48424;BME280;34232;42.502;26.014;2023-05-08T13:04:20;100002.84;;;25.94;32.74
48424;BME280;34232;42.502;26.014;2023-05-08T13:06:52;99999.00;;;26.02;33.45
48424;BME280;34232;42.502;26.014;2023-05-08T13:09:17;100004.31;;;26.08;33.56
48424;BME280;34232;42.502;26.014;2023-05-08T13:11:42;100005.66;;;25.99;32.27
48424;BME280;34232;42.502;26.014;2023-05-08T13:14:08;100011.00;;;25.88;33.29
48424;BME280;34232;42.502;26.014;2023-05-08T13:16:45;100007.41;;;25.94;32.71
48424;BME280;34232;42.502;26.014;2023-05-08T13:19:12;100018.00;;;25.77;33.03
48424;BME280;34232;42.502;26.014;2023-05-08T13:21:38;100015.97;;;25.72;32.59
48424;BME280;34232;42.502;26.014;2023-05-08T13:24:04;100021.75;;;25.76;33.23
48424;BME280;34232;42.502;26.014;2023-05-08T13:26:29;100025.13;;;25.71;33.67
48424;BME280;34232;42.502;26.014;2023-05-08T13:28:56;100023.03;;;25.73;33.60
48424;BME280;34232;42.502;26.014;2023-05-08T13:31:22;100022.75;;;25.63;33.12